createdAt,value
2017-03-22T00:00:05.456Z,727.15
2017-03-22T00:01:05.443Z,727.16
2017-03-22T00:02:05.426Z,727.13
2017-03-22T00:03:05.410Z,727.16
2017-03-22T00:04:05.396Z,727.13
2017-03-22T00:05:05.382Z,727.1
2017-03-22T00:06:05.368Z,727.13
2017-03-22T00:07:05.351Z,727.02
2017-03-22T00:08:05.335Z,727.04
2017-03-22T00:09:05.362Z,727.03
2017-03-22T00:10:05.305Z,727.08
2017-03-22T00:11:05.291Z,727.04
2017-03-22T00:12:05.277Z,727
2017-03-22T00:13:05.262Z,727.01
2017-03-22T00:14:05.245Z,727.03
2017-03-22T00:15:05.231Z,727
2017-03-22T00:16:05.215Z,727.03
2017-03-22T00:17:05.201Z,727.03
2017-03-22T00:18:05.186Z,726.99
2017-03-22T00:19:05.171Z,726.97
2017-03-22T00:20:05.154Z,726.98
2017-03-22T00:21:05.139Z,727.01
2017-03-22T00:22:05.122Z,727.01
2017-03-22T00:23:05.109Z,726.96
2017-03-22T00:24:05.093Z,726.93
2017-03-22T00:25:05.075Z,726.97
2017-03-22T00:26:05.060Z,726.95
2017-03-22T00:27:05.045Z,726.94
2017-03-22T00:28:05.029Z,726.95
2017-03-22T00:29:05.014Z,726.93
2017-03-22T00:30:04.996Z,726.96
2017-03-22T00:31:04.982Z,726.96
2017-03-22T00:32:04.964Z,727.02
2017-03-22T00:33:04.950Z,726.99
2017-03-22T00:34:04.933Z,726.97
2017-03-22T00:35:04.918Z,727
2017-03-22T00:36:04.902Z,726.95
2017-03-22T00:37:04.886Z,726.99
2017-03-22T00:38:04.870Z,726.94
2017-03-22T00:39:04.855Z,726.93
2017-03-22T00:40:04.838Z,726.9
2017-03-22T00:41:04.823Z,726.93
2017-03-22T00:42:04.808Z,726.92
2017-03-22T00:43:04.790Z,726.94
2017-03-22T00:44:04.775Z,726.89
2017-03-22T00:45:04.759Z,726.92
2017-03-22T00:46:04.742Z,726.89
2017-03-22T00:47:04.725Z,726.88
2017-03-22T00:48:04.712Z,726.92
2017-03-22T00:49:04.696Z,726.92
2017-03-22T00:50:04.680Z,726.89
2017-03-22T00:51:04.664Z,726.94
2017-03-22T00:52:04.647Z,726.88
2017-03-22T00:53:04.633Z,726.88
2017-03-22T00:54:04.616Z,726.84
2017-03-22T00:55:04.600Z,726.83
2017-03-22T00:56:04.584Z,726.91
2017-03-22T00:57:04.567Z,726.93
2017-03-22T00:58:04.551Z,726.88
2017-03-22T00:59:04.536Z,726.86
2017-03-22T01:00:04.519Z,726.82
2017-03-22T01:01:04.502Z,726.84
2017-03-22T01:02:04.486Z,726.84
2017-03-22T01:03:04.471Z,726.86
2017-03-22T01:04:04.455Z,726.84
2017-03-22T01:05:04.438Z,726.84
2017-03-22T01:06:04.422Z,726.85
2017-03-22T01:07:04.405Z,726.87
2017-03-22T01:08:04.391Z,726.85
2017-03-22T01:09:04.373Z,726.88
2017-03-22T01:10:04.393Z,726.84
2017-03-22T01:11:04.343Z,726.84
2017-03-22T01:12:04.326Z,726.86
2017-03-22T01:13:04.310Z,726.83
2017-03-22T01:14:04.296Z,726.82
2017-03-22T01:15:04.280Z,726.81
2017-03-22T01:16:04.265Z,726.82
2017-03-22T01:17:04.249Z,726.8
2017-03-22T01:18:04.234Z,726.83
2017-03-22T01:19:04.218Z,726.81
2017-03-22T01:20:04.200Z,726.82
2017-03-22T01:21:04.186Z,726.79
2017-03-22T01:22:04.172Z,726.78
2017-03-22T01:23:04.153Z,726.78
2017-03-22T01:24:04.138Z,726.77
2017-03-22T01:25:04.125Z,726.76
2017-03-22T01:26:04.109Z,726.77
2017-03-22T01:27:04.093Z,726.73
2017-03-22T01:28:04.076Z,726.7
2017-03-22T01:29:04.061Z,726.69
2017-03-22T01:30:04.045Z,726.67
2017-03-22T01:31:04.029Z,726.68
2017-03-22T01:32:04.013Z,726.65
2017-03-22T01:33:03.996Z,726.63
2017-03-22T01:34:03.981Z,726.64
2017-03-22T01:35:03.965Z,726.64
2017-03-22T01:36:03.992Z,726.63
2017-03-22T01:37:03.934Z,726.61
2017-03-22T01:38:03.916Z,726.6
2017-03-22T01:39:03.901Z,726.61
2017-03-22T01:40:03.887Z,726.62
2017-03-22T01:41:03.871Z,726.59
2017-03-22T01:42:03.852Z,726.6
2017-03-22T01:43:03.839Z,726.58
2017-03-22T01:44:03.822Z,726.62
2017-03-22T01:45:03.805Z,726.57
2017-03-22T01:46:03.791Z,726.57
2017-03-22T01:47:03.775Z,726.54
2017-03-22T01:48:03.760Z,726.5
2017-03-22T01:49:03.742Z,726.54
2017-03-22T01:50:03.727Z,726.51
2017-03-22T01:51:03.713Z,726.48
2017-03-22T01:52:03.696Z,726.43
2017-03-22T01:53:03.681Z,726.45
2017-03-22T01:54:03.666Z,726.45
2017-03-22T01:55:03.651Z,726.49
2017-03-22T01:56:03.635Z,726.47
2017-03-22T01:57:03.620Z,726.54
2017-03-22T01:58:03.605Z,726.52
2017-03-22T01:59:03.590Z,726.54
2017-03-22T02:00:03.571Z,726.53
2017-03-22T02:01:03.558Z,726.51
2017-03-22T02:02:03.541Z,726.51
2017-03-22T02:03:03.527Z,726.55
2017-03-22T02:04:03.511Z,726.53
2017-03-22T02:05:03.495Z,726.52
2017-03-22T02:06:03.480Z,726.5
2017-03-22T02:07:03.466Z,726.47
2017-03-22T02:08:03.448Z,726.46
2017-03-22T02:09:03.434Z,726.46
2017-03-22T02:10:03.418Z,726.38
2017-03-22T02:11:03.400Z,726.44
2017-03-22T02:12:03.385Z,726.41
2017-03-22T02:13:03.369Z,726.39
2017-03-22T02:14:03.352Z,726.39
2017-03-22T02:15:03.336Z,726.37
2017-03-22T02:16:03.320Z,726.39
2017-03-22T02:17:03.305Z,726.39
2017-03-22T02:18:03.286Z,726.39
2017-03-22T02:19:03.270Z,726.39
2017-03-22T02:20:03.254Z,726.36
2017-03-22T02:21:03.239Z,726.39
2017-03-22T02:22:03.221Z,726.39
2017-03-22T02:23:03.204Z,726.4
2017-03-22T02:24:03.189Z,726.36
2017-03-22T02:25:03.170Z,726.35
2017-03-22T02:26:03.163Z,726.34
2017-03-22T02:27:03.140Z,726.33
2017-03-22T02:28:03.136Z,726.3
2017-03-22T02:29:03.116Z,726.36
2017-03-22T02:30:03.094Z,726.34
2017-03-22T02:31:03.081Z,726.32
2017-03-22T02:32:03.060Z,726.32
2017-03-22T02:33:03.048Z,726.31
2017-03-22T02:34:03.039Z,726.35
2017-03-22T02:35:03.014Z,726.34
2017-03-22T02:36:02.997Z,726.32
2017-03-22T02:37:02.981Z,726.4
2017-03-22T02:38:02.967Z,726.39
2017-03-22T02:39:02.952Z,726.38
2017-03-22T02:40:02.934Z,726.39
2017-03-22T02:41:02.920Z,726.37
2017-03-22T02:42:02.904Z,726.34
2017-03-22T02:43:02.891Z,726.34
2017-03-22T02:44:02.873Z,726.39
2017-03-22T02:45:02.859Z,726.39
2017-03-22T02:46:02.843Z,726.34
2017-03-22T02:47:02.827Z,726.39
2017-03-22T02:48:02.812Z,726.34
2017-03-22T02:49:02.797Z,726.35
2017-03-22T02:50:02.781Z,726.34
2017-03-22T02:51:02.764Z,726.31
2017-03-22T02:52:02.749Z,726.33
2017-03-22T02:53:02.736Z,726.32
2017-03-22T02:54:02.718Z,726.34
2017-03-22T02:55:02.701Z,726.44
2017-03-22T02:56:02.685Z,726.42
2017-03-22T02:57:02.669Z,726.38
2017-03-22T02:58:02.651Z,726.35
2017-03-22T02:59:02.636Z,726.37
2017-03-22T03:00:02.620Z,726.3
2017-03-22T03:01:02.602Z,726.36
2017-03-22T03:02:02.588Z,726.33
2017-03-22T03:03:02.569Z,726.36
2017-03-22T03:04:02.552Z,726.32
2017-03-22T03:05:02.534Z,726.34
2017-03-22T03:06:02.516Z,726.35
2017-03-22T03:07:02.499Z,726.33
2017-03-22T03:08:02.484Z,726.31
2017-03-22T03:09:02.465Z,726.26
2017-03-22T03:10:02.449Z,726.32
2017-03-22T03:11:02.431Z,726.3
2017-03-22T03:12:02.414Z,726.25
2017-03-22T03:13:02.395Z,726.24
2017-03-22T03:14:02.378Z,726.23
2017-03-22T03:15:02.361Z,726.17
2017-03-22T03:16:02.343Z,726.31
2017-03-22T03:17:02.325Z,726.23
2017-03-22T03:18:02.306Z,726.29
2017-03-22T03:19:02.289Z,726.3
2017-03-22T03:20:02.270Z,726.3
2017-03-22T03:21:02.253Z,726.31
2017-03-22T03:22:02.235Z,726.33
2017-03-22T03:23:02.218Z,726.35
2017-03-22T03:24:02.199Z,726.34
2017-03-22T03:25:02.181Z,726.39
2017-03-22T03:26:02.163Z,726.35
2017-03-22T03:27:02.144Z,726.36
2017-03-22T03:28:02.132Z,726.4
2017-03-22T03:29:02.110Z,726.4
2017-03-22T03:30:02.093Z,726.36
2017-03-22T03:31:02.074Z,726.36
2017-03-22T03:32:02.056Z,726.36
2017-03-22T03:33:02.038Z,726.4
2017-03-22T03:34:02.019Z,726.35
2017-03-22T03:35:02.001Z,726.31
2017-03-22T03:36:01.982Z,726.38
2017-03-22T03:37:01.966Z,726.35
2017-03-22T03:38:01.947Z,726.36
2017-03-22T03:39:01.929Z,726.34
2017-03-22T03:40:01.910Z,726.31
2017-03-22T03:41:01.894Z,726.32
2017-03-22T03:42:01.873Z,726.36
2017-03-22T03:43:01.855Z,726.33
2017-03-22T03:44:01.838Z,726.4
2017-03-22T03:45:01.820Z,726.34
2017-03-22T03:46:01.800Z,726.31
2017-03-22T03:47:01.784Z,726.3
2017-03-22T03:48:01.766Z,726.31
2017-03-22T03:49:01.747Z,726.31
2017-03-22T03:50:01.730Z,726.35
2017-03-22T03:51:01.711Z,726.35
2017-03-22T03:52:01.693Z,726.35
2017-03-22T03:53:01.675Z,726.38
2017-03-22T03:54:01.656Z,726.33
2017-03-22T03:55:01.642Z,726.35
2017-03-22T03:56:01.621Z,726.35
2017-03-22T03:57:01.601Z,726.38
2017-03-22T03:58:01.585Z,726.36
2017-03-22T03:59:01.565Z,726.39
2017-03-22T04:00:01.548Z,726.4
2017-03-22T04:01:01.528Z,726.42
2017-03-22T04:02:01.510Z,726.36
2017-03-22T04:03:01.498Z,726.4
2017-03-22T04:04:01.475Z,726.41
2017-03-22T04:05:01.455Z,726.4
2017-03-22T04:06:01.445Z,726.35
2017-03-22T04:07:01.419Z,726.39
2017-03-22T04:08:01.400Z,726.38
2017-03-22T04:09:01.385Z,726.41
2017-03-22T04:10:01.363Z,726.4
2017-03-22T04:11:01.345Z,726.44
2017-03-22T04:12:01.327Z,726.41
2017-03-22T04:13:01.309Z,726.41
2017-03-22T04:14:01.292Z,726.42
2017-03-22T04:15:01.273Z,726.44
2017-03-22T04:16:01.254Z,726.39
2017-03-22T04:17:01.236Z,726.39
2017-03-22T04:18:01.219Z,726.41
2017-03-22T04:19:01.200Z,726.41
2017-03-22T04:20:01.183Z,726.39
2017-03-22T04:21:01.165Z,726.41
2017-03-22T04:22:01.146Z,726.38
2017-03-22T04:23:01.128Z,726.39
2017-03-22T04:24:01.111Z,726.41
2017-03-22T04:25:01.093Z,726.42
2017-03-22T04:26:01.074Z,726.38
2017-03-22T04:27:01.055Z,726.36
2017-03-22T04:28:01.039Z,726.41
2017-03-22T04:29:01.024Z,726.4
2017-03-22T04:30:01.002Z,726.4
2017-03-22T04:31:00.984Z,726.42
2017-03-22T04:32:00.966Z,726.43
2017-03-22T04:33:00.949Z,726.44
2017-03-22T04:34:00.931Z,726.41
2017-03-22T04:35:00.912Z,726.39
2017-03-22T04:36:00.895Z,726.4
2017-03-22T04:37:00.884Z,726.38
2017-03-22T04:38:00.859Z,726.39
2017-03-22T04:39:00.842Z,726.37
2017-03-22T04:40:00.824Z,726.39
2017-03-22T04:41:00.805Z,726.4
2017-03-22T04:42:00.788Z,726.45
2017-03-22T04:43:00.769Z,726.44
2017-03-22T04:44:00.751Z,726.45
2017-03-22T04:45:00.735Z,726.49
2017-03-22T04:46:00.718Z,726.45
2017-03-22T04:47:00.700Z,726.45
2017-03-22T04:48:00.683Z,726.42
2017-03-22T04:49:00.666Z,726.45
2017-03-22T04:50:00.648Z,726.44
2017-03-22T04:51:00.632Z,726.5
2017-03-22T04:52:00.614Z,726.51
2017-03-22T04:53:00.597Z,726.46
2017-03-22T04:54:00.580Z,726.46
2017-03-22T04:55:00.562Z,726.46
2017-03-22T04:56:00.545Z,726.47
2017-03-22T04:57:00.528Z,726.42
2017-03-22T04:58:00.512Z,726.42
2017-03-22T04:59:00.493Z,726.38
2017-03-22T05:00:00.477Z,726.35
2017-03-22T05:01:00.461Z,726.36
2017-03-22T05:02:00.443Z,726.35
2017-03-22T05:03:00.426Z,726.33
2017-03-22T05:04:00.411Z,726.35
2017-03-22T05:05:00.395Z,726.34
2017-03-22T05:06:00.377Z,726.37
2017-03-22T05:07:00.362Z,726.4
2017-03-22T05:08:00.345Z,726.4
2017-03-22T05:09:00.330Z,726.38
2017-03-22T05:10:00.313Z,726.37
2017-03-22T05:11:00.297Z,726.35
2017-03-22T05:12:00.281Z,726.39
2017-03-22T05:13:00.264Z,726.34
2017-03-22T05:14:00.249Z,726.34
2017-03-22T05:15:00.234Z,726.37
2017-03-22T05:16:00.218Z,726.34
2017-03-22T05:17:00.202Z,726.35
2017-03-22T05:18:00.186Z,726.32
2017-03-22T05:19:00.170Z,726.32
2017-03-22T05:20:00.156Z,726.3
2017-03-22T05:21:00.140Z,726.29
2017-03-22T05:22:00.124Z,726.34
2017-03-22T05:23:00.109Z,726.34
2017-03-22T05:24:00.092Z,726.31
2017-03-22T05:25:00.077Z,726.34
2017-03-22T05:26:00.060Z,726.33
2017-03-22T05:27:00.046Z,726.33
2017-03-22T05:28:00.030Z,726.34
2017-03-22T05:29:00.019Z,726.34
2017-03-22T05:29:59.998Z,726.33
2017-03-22T05:30:59.983Z,726.36
2017-03-22T05:31:59.967Z,726.37
2017-03-22T05:32:59.951Z,726.41
2017-03-22T05:33:59.936Z,726.39
2017-03-22T05:34:59.919Z,726.4
2017-03-22T05:35:59.902Z,726.38
2017-03-22T05:36:59.887Z,726.31
2017-03-22T05:37:59.871Z,726.26
2017-03-22T05:38:59.855Z,726.26
2017-03-22T05:39:59.839Z,726.27
2017-03-22T05:40:59.823Z,726.28
2017-03-22T05:41:59.810Z,726.3
2017-03-22T05:42:59.792Z,726.3
2017-03-22T05:43:59.778Z,726.31
2017-03-22T05:44:59.762Z,726.36
2017-03-22T05:45:59.745Z,726.34
2017-03-22T05:46:59.729Z,726.37
2017-03-22T05:47:59.714Z,726.41
2017-03-22T05:48:59.698Z,726.41
2017-03-22T05:49:59.682Z,726.4
2017-03-22T05:50:59.664Z,726.41
2017-03-22T05:51:59.650Z,726.4
2017-03-22T05:52:59.634Z,726.41
2017-03-22T05:53:59.618Z,726.47
2017-03-22T05:54:59.601Z,726.52
2017-03-22T05:55:59.584Z,726.49
2017-03-22T05:56:59.568Z,726.42
2017-03-22T05:57:59.552Z,726.52
2017-03-22T05:58:59.535Z,726.52
2017-03-22T05:59:59.544Z,726.51
2017-03-22T06:00:59.502Z,726.54
2017-03-22T06:01:59.484Z,726.52
2017-03-22T06:02:59.467Z,726.47
2017-03-22T06:03:59.453Z,726.51
2017-03-22T06:04:59.435Z,726.46
2017-03-22T06:05:59.419Z,726.53
2017-03-22T06:06:59.404Z,726.49
2017-03-22T06:07:59.387Z,726.47
2017-03-22T06:08:59.370Z,726.5
2017-03-22T06:09:59.354Z,726.54
2017-03-22T06:10:59.339Z,726.5
2017-03-22T06:11:59.326Z,726.48
2017-03-22T06:12:59.307Z,726.49
2017-03-22T06:13:59.290Z,726.51
2017-03-22T06:14:59.275Z,726.54
2017-03-22T06:15:59.257Z,726.57
2017-03-22T06:16:59.244Z,726.55
2017-03-22T06:17:59.228Z,726.6
2017-03-22T06:18:59.216Z,726.57
2017-03-22T06:19:59.194Z,726.56
2017-03-22T06:20:59.178Z,726.57
2017-03-22T06:21:59.165Z,726.63
2017-03-22T06:22:59.148Z,726.59
2017-03-22T06:23:59.131Z,726.64
2017-03-22T06:24:59.116Z,726.67
2017-03-22T06:25:59.101Z,726.68
2017-03-22T06:26:59.100Z,726.62
2017-03-22T06:27:59.074Z,726.59
2017-03-22T06:28:59.056Z,726.65
2017-03-22T06:29:59.037Z,726.62
2017-03-22T06:30:59.021Z,726.58
2017-03-22T06:31:59.006Z,726.52
2017-03-22T06:32:58.991Z,726.54
2017-03-22T06:33:58.976Z,726.57
2017-03-22T06:34:58.960Z,726.55
2017-03-22T06:35:58.944Z,726.51
2017-03-22T06:36:58.930Z,726.5
2017-03-22T06:37:58.918Z,726.53
2017-03-22T06:38:58.900Z,726.52
2017-03-22T06:39:58.884Z,726.56
2017-03-22T06:40:58.867Z,726.58
2017-03-22T06:41:58.853Z,726.59
2017-03-22T06:42:58.838Z,726.54
2017-03-22T06:43:58.822Z,726.57
2017-03-22T06:44:58.808Z,726.54
2017-03-22T06:45:58.791Z,726.54
2017-03-22T06:46:58.776Z,726.52
2017-03-22T06:47:58.762Z,726.51
2017-03-22T06:48:58.754Z,726.49
2017-03-22T06:49:58.732Z,726.47
2017-03-22T06:50:58.721Z,726.44
2017-03-22T06:51:58.700Z,726.51
2017-03-22T06:52:58.686Z,726.5
2017-03-22T06:53:58.671Z,726.52
2017-03-22T06:54:58.655Z,726.53
2017-03-22T06:55:58.639Z,726.53
2017-03-22T06:56:58.625Z,726.45
2017-03-22T06:57:58.609Z,726.45
2017-03-22T06:58:58.594Z,726.4
2017-03-22T06:59:58.579Z,726.46
2017-03-22T07:00:58.563Z,726.44
2017-03-22T07:01:58.549Z,726.48
2017-03-22T07:02:58.534Z,726.53
2017-03-22T07:03:58.518Z,726.6
2017-03-22T07:04:58.504Z,726.6
2017-03-22T07:05:58.487Z,726.57
2017-03-22T07:06:58.473Z,726.63
2017-03-22T07:07:58.459Z,726.65
2017-03-22T07:08:58.445Z,726.67
2017-03-22T07:09:58.428Z,726.72
2017-03-22T07:10:58.414Z,726.77
2017-03-22T07:11:58.400Z,726.79
2017-03-22T07:12:58.385Z,726.77
2017-03-22T07:13:58.370Z,726.73
2017-03-22T07:14:58.356Z,726.75
2017-03-22T07:15:58.340Z,726.78
2017-03-22T07:16:58.326Z,726.89
2017-03-22T07:17:58.311Z,726.95
2017-03-22T07:18:58.298Z,726.96
2017-03-22T07:19:58.289Z,726.98
2017-03-22T07:20:58.268Z,726.9
2017-03-22T07:21:58.258Z,726.85
2017-03-22T07:22:58.241Z,726.9
2017-03-22T07:23:58.227Z,727
2017-03-22T07:24:58.214Z,727.01
2017-03-22T07:25:58.198Z,726.96
2017-03-22T07:26:58.182Z,726.93
2017-03-22T07:27:58.169Z,726.86
2017-03-22T07:28:58.155Z,726.92
2017-03-22T07:29:58.140Z,726.99
2017-03-22T07:30:58.126Z,727.02
2017-03-22T07:31:58.111Z,727.05
2017-03-22T07:32:58.097Z,727.02
2017-03-22T07:33:58.081Z,727.01
2017-03-22T07:34:58.068Z,726.96
2017-03-22T07:35:58.052Z,726.9
2017-03-22T07:36:58.038Z,726.96
2017-03-22T07:37:58.023Z,727.04
2017-03-22T07:38:58.008Z,727
2017-03-22T07:39:57.993Z,727.04
2017-03-22T07:40:57.977Z,727.03
2017-03-22T07:41:57.964Z,727.04
2017-03-22T07:42:57.948Z,727.05
2017-03-22T07:43:57.934Z,727.04
2017-03-22T07:44:57.918Z,727.05
2017-03-22T07:45:57.904Z,726.99
2017-03-22T07:46:57.890Z,727.02
2017-03-22T07:47:57.876Z,727.04
2017-03-22T07:48:57.862Z,727.07
2017-03-22T07:49:57.848Z,727.04
2017-03-22T07:50:57.833Z,727.06
2017-03-22T07:51:57.819Z,727.04
2017-03-22T07:52:57.847Z,727.03
2017-03-22T07:53:57.790Z,727.02
2017-03-22T07:54:57.775Z,727.02
2017-03-22T07:55:57.761Z,727.04
2017-03-22T07:56:57.746Z,727.09
2017-03-22T07:57:57.732Z,727.06
2017-03-22T07:58:57.719Z,727.12
2017-03-22T07:59:57.703Z,727.13
2017-03-22T08:00:57.690Z,727.1
2017-03-22T08:01:57.675Z,727.19
2017-03-22T08:02:57.661Z,727.16
2017-03-22T08:03:57.646Z,727.17
2017-03-22T08:04:57.631Z,727.19
2017-03-22T08:05:57.618Z,727.22
2017-03-22T08:06:57.604Z,727.25
2017-03-22T08:07:57.589Z,727.29
2017-03-22T08:08:57.574Z,727.33
2017-03-22T08:09:57.560Z,727.34
2017-03-22T08:10:57.545Z,727.34
2017-03-22T08:11:57.531Z,727.39
2017-03-22T08:12:57.515Z,727.32
2017-03-22T08:13:57.501Z,727.4
2017-03-22T08:14:57.487Z,727.43
2017-03-22T08:15:57.470Z,727.43
2017-03-22T08:16:57.488Z,727.44
2017-03-22T08:17:57.442Z,727.42
2017-03-22T08:18:57.429Z,727.43
2017-03-22T08:19:57.426Z,727.46
2017-03-22T08:20:57.400Z,727.43
2017-03-22T08:21:57.385Z,727.43
2017-03-22T08:22:57.377Z,727.44
2017-03-22T08:23:57.359Z,727.46
2017-03-22T08:24:57.345Z,727.45
2017-03-22T08:25:57.332Z,727.47
2017-03-22T08:26:57.318Z,727.51
2017-03-22T08:27:57.304Z,727.46
2017-03-22T08:28:57.327Z,727.43
2017-03-22T08:29:57.279Z,727.49
2017-03-22T08:30:57.265Z,727.43
2017-03-22T08:31:57.252Z,727.43
2017-03-22T08:32:57.239Z,727.4
2017-03-22T08:33:57.228Z,727.38
2017-03-22T08:34:57.212Z,727.49
2017-03-22T08:35:57.198Z,727.54
2017-03-22T08:36:57.185Z,727.52
2017-03-22T08:37:57.171Z,727.54
2017-03-22T08:38:57.158Z,727.46
2017-03-22T08:39:57.155Z,727.44
2017-03-22T08:40:57.134Z,727.41
2017-03-22T08:41:57.122Z,727.48
2017-03-22T08:42:57.107Z,727.53
2017-03-22T08:43:57.096Z,727.52
2017-03-22T08:44:57.081Z,727.51
2017-03-22T08:45:57.069Z,727.47
2017-03-22T08:46:57.056Z,727.53
2017-03-22T08:47:57.042Z,727.45
2017-03-22T08:48:57.029Z,727.47
2017-03-22T08:49:57.015Z,727.52
2017-03-22T08:50:57.003Z,727.53
2017-03-22T08:51:56.991Z,727.53
2017-03-22T08:52:56.979Z,727.56
2017-03-22T08:53:56.966Z,727.5
2017-03-22T08:54:56.952Z,727.54
2017-03-22T08:55:56.940Z,727.5
2017-03-22T08:56:56.928Z,727.5
2017-03-22T08:57:56.916Z,727.53
2017-03-22T08:58:56.901Z,727.56
2017-03-22T08:59:56.888Z,727.6
2017-03-22T09:00:56.876Z,727.63
2017-03-22T09:01:56.864Z,727.65
2017-03-22T09:02:56.850Z,727.63
2017-03-22T09:03:56.836Z,727.66
2017-03-22T09:04:56.825Z,727.65
2017-03-22T09:05:56.813Z,727.64
2017-03-22T09:06:56.800Z,727.67
2017-03-22T09:07:56.785Z,727.64
2017-03-22T09:08:56.773Z,727.6
2017-03-22T09:09:56.762Z,727.59
2017-03-22T09:10:56.748Z,727.63
2017-03-22T09:11:56.737Z,727.62
2017-03-22T09:12:56.725Z,727.66
2017-03-22T09:13:56.712Z,727.66
2017-03-22T09:14:56.701Z,727.64
2017-03-22T09:15:56.689Z,727.66
2017-03-22T09:16:56.677Z,727.65
2017-03-22T09:17:56.664Z,727.7
2017-03-22T09:18:56.652Z,727.74
2017-03-22T09:19:56.640Z,727.72
2017-03-22T09:20:56.628Z,727.72
2017-03-22T09:21:56.617Z,727.72
2017-03-22T09:22:56.605Z,727.73
2017-03-22T09:23:56.597Z,727.73
2017-03-22T09:24:56.583Z,727.74
2017-03-22T09:25:56.581Z,727.8
2017-03-22T09:26:56.559Z,727.73
2017-03-22T09:27:56.546Z,727.78
2017-03-22T09:28:56.535Z,727.71
2017-03-22T09:29:56.523Z,727.9
2017-03-22T09:30:56.512Z,727.78
2017-03-22T09:31:56.500Z,727.69
2017-03-22T09:32:56.488Z,727.67
2017-03-22T09:33:56.477Z,727.68
2017-03-22T09:34:56.465Z,727.76
2017-03-22T09:35:56.453Z,727.74
2017-03-22T09:36:56.439Z,727.78
2017-03-22T09:37:56.427Z,727.81
2017-03-22T09:38:56.415Z,727.82
2017-03-22T09:39:56.431Z,727.83
2017-03-22T09:40:56.389Z,727.8
2017-03-22T09:41:56.377Z,727.79
2017-03-22T09:42:56.365Z,727.8
2017-03-22T09:43:56.352Z,727.85
2017-03-22T09:44:56.340Z,727.87
2017-03-22T09:45:56.329Z,727.9
2017-03-22T09:46:56.315Z,727.92
2017-03-22T09:47:56.303Z,727.92
2017-03-22T09:48:56.292Z,727.84
2017-03-22T09:49:56.279Z,727.84
2017-03-22T09:50:56.266Z,727.84
2017-03-22T09:51:56.253Z,727.84
2017-03-22T09:52:56.243Z,727.83
2017-03-22T09:53:56.231Z,727.8
2017-03-22T09:54:56.218Z,727.87
2017-03-22T09:55:56.206Z,727.87
2017-03-22T09:56:56.193Z,727.89
2017-03-22T09:57:56.182Z,727.95
2017-03-22T09:58:56.171Z,728
2017-03-22T09:59:56.159Z,728.07
2017-03-22T10:00:56.145Z,728.09
2017-03-22T10:01:56.136Z,728.09
2017-03-22T10:02:56.122Z,727.97
2017-03-22T10:03:56.110Z,727.94
2017-03-22T10:04:56.098Z,727.96
2017-03-22T10:05:56.084Z,728.02
2017-03-22T10:06:56.074Z,728.05
2017-03-22T10:07:56.263Z,728.11
2017-03-22T10:08:56.049Z,728.12
2017-03-22T10:09:56.036Z,728.02
2017-03-22T10:10:56.025Z,727.91
2017-03-22T10:11:56.013Z,727.85
2017-03-22T10:12:56.002Z,727.92
2017-03-22T10:13:55.990Z,727.87
2017-03-22T10:14:55.978Z,727.96
2017-03-22T10:15:55.967Z,727.97
2017-03-22T10:16:55.956Z,727.91
2017-03-22T10:17:55.944Z,727.97
2017-03-22T10:18:55.932Z,727.87
2017-03-22T10:19:55.921Z,727.85
2017-03-22T10:20:55.910Z,727.89
2017-03-22T10:21:55.899Z,727.88
2017-03-22T10:22:55.889Z,727.86
2017-03-22T10:23:55.877Z,727.85
2017-03-22T10:24:55.868Z,727.89
2017-03-22T10:25:55.856Z,727.88
2017-03-22T10:26:55.845Z,727.89
2017-03-22T10:27:55.833Z,727.94
2017-03-22T10:28:55.822Z,727.98
2017-03-22T10:29:55.811Z,727.99
2017-03-22T10:30:55.799Z,728.07
2017-03-22T10:31:55.790Z,727.93
2017-03-22T10:32:55.779Z,727.89
2017-03-22T10:33:55.767Z,727.95
2017-03-22T10:34:55.756Z,728.07
2017-03-22T10:35:55.746Z,728.07
2017-03-22T10:36:55.735Z,727.99
2017-03-22T10:37:55.724Z,727.99
2017-03-22T10:38:55.713Z,728.05
2017-03-22T10:39:55.704Z,727.99
2017-03-22T10:40:55.693Z,727.91
2017-03-22T10:41:55.683Z,727.91
2017-03-22T10:42:55.672Z,728
2017-03-22T10:43:55.661Z,728
2017-03-22T10:44:55.653Z,728.02
2017-03-22T10:45:55.642Z,727.89
2017-03-22T10:46:55.633Z,727.84
2017-03-22T10:47:55.623Z,727.84
2017-03-22T10:48:55.613Z,727.91
2017-03-22T10:49:55.601Z,727.84
2017-03-22T10:50:55.592Z,727.87
2017-03-22T10:51:55.582Z,727.78
2017-03-22T10:52:55.571Z,727.79
2017-03-22T10:53:55.561Z,727.78
2017-03-22T10:54:55.551Z,727.76
2017-03-22T10:55:55.541Z,727.72
2017-03-22T10:56:55.532Z,727.72
2017-03-22T10:57:55.522Z,727.75
2017-03-22T10:58:55.513Z,727.8
2017-03-22T10:59:55.502Z,727.78
2017-03-22T11:00:55.491Z,727.78
2017-03-22T11:01:55.482Z,727.79
2017-03-22T11:02:55.471Z,727.87
2017-03-22T11:03:55.459Z,727.8
2017-03-22T11:04:55.450Z,727.83
2017-03-22T11:05:55.441Z,727.81
2017-03-22T11:06:55.430Z,727.77
2017-03-22T11:07:55.459Z,727.79
2017-03-22T11:08:55.409Z,727.74
2017-03-22T11:09:55.404Z,727.78
2017-03-22T11:10:55.387Z,727.83
2017-03-22T11:11:55.374Z,727.88
2017-03-22T11:12:55.364Z,727.84
2017-03-22T11:13:55.354Z,727.9
2017-03-22T11:14:55.342Z,727.91
2017-03-22T11:15:55.331Z,727.9
2017-03-22T11:16:55.320Z,727.88
2017-03-22T11:17:55.308Z,727.85
2017-03-22T11:18:55.297Z,727.85
2017-03-22T11:19:55.285Z,727.83
2017-03-22T11:20:55.272Z,727.81
2017-03-22T11:21:55.500Z,727.84
2017-03-22T11:22:55.452Z,727.83
2017-03-22T11:23:55.238Z,727.88
2017-03-22T11:24:55.226Z,727.92
2017-03-22T11:25:55.213Z,727.91
2017-03-22T11:26:55.208Z,727.89
2017-03-22T11:27:55.190Z,727.86
2017-03-22T11:28:55.179Z,727.9
2017-03-22T11:29:55.167Z,727.99
2017-03-22T11:30:55.156Z,727.86
2017-03-22T11:31:55.144Z,727.92
2017-03-22T11:32:55.132Z,727.98
2017-03-22T11:33:55.122Z,727.92
2017-03-22T11:34:55.146Z,727.94
2017-03-22T11:35:55.101Z,727.88
2017-03-22T11:36:55.089Z,727.85
2017-03-22T11:37:55.077Z,727.92
2017-03-22T11:38:55.069Z,727.91
2017-03-22T11:39:55.056Z,727.87
2017-03-22T11:40:55.043Z,727.89
2017-03-22T11:41:55.031Z,727.95
2017-03-22T11:42:55.021Z,727.93
2017-03-22T11:43:55.009Z,728
2017-03-22T11:44:54.998Z,727.91
2017-03-22T11:45:54.985Z,727.87
2017-03-22T11:46:54.975Z,727.91
2017-03-22T11:47:54.964Z,727.9
2017-03-22T11:48:54.952Z,727.94
2017-03-22T11:49:54.939Z,727.9
2017-03-22T11:50:54.930Z,727.92
2017-03-22T11:51:54.917Z,727.87
2017-03-22T11:52:54.906Z,727.89
2017-03-22T11:53:54.893Z,727.95
2017-03-22T11:54:54.881Z,727.91
2017-03-22T11:55:54.870Z,727.88
2017-03-22T11:56:54.860Z,727.88
2017-03-22T11:57:54.849Z,727.84
2017-03-22T11:58:54.837Z,727.85
2017-03-22T11:59:54.825Z,727.87
2017-03-22T12:00:54.814Z,727.86
2017-03-22T12:01:54.804Z,727.9
2017-03-22T12:02:54.793Z,727.89
2017-03-22T12:03:54.781Z,727.83
2017-03-22T12:04:54.771Z,727.92
2017-03-22T12:05:54.759Z,727.87
2017-03-22T12:06:54.749Z,727.85
2017-03-22T12:07:54.738Z,727.9
2017-03-22T12:08:54.726Z,727.9
2017-03-22T12:09:54.715Z,727.88
2017-03-22T12:10:54.705Z,727.85
2017-03-22T12:11:54.694Z,727.87
2017-03-22T12:12:54.684Z,727.88
2017-03-22T12:13:54.672Z,727.88
2017-03-22T12:14:54.663Z,727.83
2017-03-22T12:15:54.651Z,727.87
2017-03-22T12:16:54.640Z,727.84
2017-03-22T12:17:54.629Z,727.87
2017-03-22T12:18:54.620Z,727.86
2017-03-22T12:19:54.608Z,727.88
2017-03-22T12:20:54.597Z,727.89
2017-03-22T12:21:54.588Z,727.86
2017-03-22T12:22:54.576Z,727.84
2017-03-22T12:23:54.567Z,727.84
2017-03-22T12:24:54.556Z,727.89
2017-03-22T12:25:54.546Z,727.87
2017-03-22T12:26:54.536Z,727.85
2017-03-22T12:27:54.524Z,727.86
2017-03-22T12:28:54.516Z,727.92
2017-03-22T12:29:54.505Z,727.95
2017-03-22T12:30:54.496Z,727.92